sensor_id;sensor_type;location;lat;lon;timestamp;pressure;altitude;pressure_sealevel;temperature;humidity
6435;BME280;3250;42.694;23.278;2023-09-07T00:00:29;95260.91;;;20.63;75.21
6435;BME280;3250;42.694;23.278;2023-09-07T00:02:55;95280.19;;;20.70;74.41
6435;BME280;3250;42.694;23.278;2023-09-07T00:05:20;95247.50;;;20.53;74.09
6435;BME280;3250;42.694;23.278;2023-09-07T00:07:45;95293.06;;;20.79;74.21
6435;BME280;3250;42.694;23.278;2023-09-07T00:10:11;95272.41;;;20.69;74.14
6435;BME280;3250;42.694;23.278;2023-09-07T00:12:36;95290.44;;;21.04;73.57
6435;BME280;3250;42.694;23.278;2023-09-07T00:15:04;95303.28;;;21.02;73.11
6435;BME280;3250;42.694;23.278;2023-09-07T00:17:31;95252.91;;;20.74;73.69
6435;BME280;3250;42.694;23.278;2023-09-07T00:19:57;95301.66;;;20.96;73.51
6435;BME280;3250;42.694;23.278;2023-09-07T00:22:23;95313.19;;;21.01;73.78
6435;BME280;3250;42.694;23.278;2023-09-07T00:24:50;95295.75;;;20.84;74.28
6435;BME280;3250;42.694;23.278;2023-09-07T00:27:16;95289.81;;;20.77;74.56
6435;BME280;3250;42.694;23.278;2023-09-07T00:29:41;95303.78;;;20.89;74.67
6435;BME280;3250;42.694;23.278;2023-09-07T00:32:07;95283.38;;;20.67;75.67
6435;BME280;3250;42.694;23.278;2023-09-07T00:34:32;95252.84;;;20.53;75.72
6435;BME280;3250;42.694;23.278;2023-09-07T00:36:57;95294.63;;;20.69;76.83
6435;BME280;3250;42.694;23.278;2023-09-07T00:39:23;95295.41;;;20.60;77.40
6435;BME280;3250;42.694;23.278;2023-09-07T00:41:48;95273.91;;;20.34;78.11
6435;BME280;3250;42.694;23.278;2023-09-07T00:44:14;95296.19;;;20.55;77.95
6435;BME280;3250;42.694;23.278;2023-09-07T00:46:39;95284.16;;;20.53;78.03
6435;BME280;3250;42.694;23.278;2023-09-07T00:49:05;95280.91;;;20.46;78.13
6435;BME280;3250;42.694;23.278;2023-09-07T00:51:31;95287.63;;;20.53;77.99
6435;BME280;3250;42.694;23.278;2023-09-07T00:53:58;95264.06;;;20.40;77.90
6435;BME280;3250;42.694;23.278;2023-09-07T00:56:25;95290.31;;;20.58;78.32
6435;BME280;3250;42.694;23.278;2023-09-07T00:58:52;95278.66;;;20.32;78.80
6435;BME280;3250;42.694;23.278;2023-09-07T01:01:19;95261.81;;;20.22;78.78
6435;BME280;3250;42.694;23.278;2023-09-07T01:03:45;95259.63;;;20.19;79.26
6435;BME280;3250;42.694;23.278;2023-09-07T01:06:26;95273.31;;;20.32;79.48
6435;BME280;3250;42.694;23.278;2023-09-07T01:08:55;95282.22;;;20.43;79.19
6435;BME280;3250;42.694;23.278;2023-09-07T01:11:22;95287.03;;;20.41;79.13
6435;BME280;3250;42.694;23.278;2023-09-07T01:13:48;95283.31;;;20.47;79.54
6435;BME280;3250;42.694;23.278;2023-09-07T01:16:14;95282.22;;;20.43;78.88
6435;BME280;3250;42.694;23.278;2023-09-07T01:18:40;95288.94;;;20.46;79.27
6435;BME280;3250;42.694;23.278;2023-09-07T01:21:06;95255.66;;;20.26;79.52
6435;BME280;3250;42.694;23.278;2023-09-07T01:23:36;95281.66;;;20.36;79.84
6435;BME280;3250;42.694;23.278;2023-09-07T01:26:03;95285.16;;;20.42;80.19
6435;BME280;3250;42.694;23.278;2023-09-07T01:28:29;95263.97;;;20.30;79.87
6435;BME280;3250;42.694;23.278;2023-09-07T01:30:54;95253.47;;;20.18;80.39
6435;BME280;3250;42.694;23.278;2023-09-07T01:33:20;95283.78;;;20.34;80.40
6435;BME280;3250;42.694;23.278;2023-09-07T01:35:46;95270.34;;;20.24;80.69
6435;BME280;3250;42.694;23.278;2023-09-07T01:38:11;95248.34;;;20.07;80.78
6435;BME280;3250;42.694;23.278;2023-09-07T01:40:37;95270.59;;;20.17;81.24
6435;BME280;3250;42.694;23.278;2023-09-07T01:43:02;95243.78;;;19.97;81.34
6435;BME280;3250;42.694;23.278;2023-09-07T01:45:27;95245.63;;;19.96;81.45
6435;BME280;3250;42.694;23.278;2023-09-07T01:47:53;95261.69;;;20.02;81.93
6435;BME280;3250;42.694;23.278;2023-09-07T01:50:19;95229.50;;;19.81;81.99
6435;BME280;3250;42.694;23.278;2023-09-07T01:52:47;95176.72;;;19.51;82.19
6435;BME280;3250;42.694;23.278;2023-09-07T01:55:13;95222.84;;;19.84;82.07
6435;BME280;3250;42.694;23.278;2023-09-07T01:57:39;95255.53;;;20.01;82.24
6435;BME280;3250;42.694;23.278;2023-09-07T02:00:05;95285.63;;;20.23;82.60
6435;BME280;3250;42.694;23.278;2023-09-07T02:02:30;95237.63;;;19.96;82.56
6435;BME280;3250;42.694;23.278;2023-09-07T02:04:56;95293.63;;;20.23;82.45
6435;BME280;3250;42.694;23.278;2023-09-07T02:07:21;95218.28;;;19.79;82.63
6435;BME280;3250;42.694;23.278;2023-09-07T02:09:47;95253.13;;;20.00;82.57
6435;BME280;3250;42.694;23.278;2023-09-07T02:12:12;95273.75;;;20.09;82.29
6435;BME280;3250;42.694;23.278;2023-09-07T02:14:37;95279.41;;;20.13;82.81
6435;BME280;3250;42.694;23.278;2023-09-07T02:17:03;95291.16;;;20.17;82.81
6435;BME280;3250;42.694;23.278;2023-09-07T02:19:29;95266.28;;;20.11;82.54
6435;BME280;3250;42.694;23.278;2023-09-07T02:21:54;95294.09;;;20.15;82.93
6435;BME280;3250;42.694;23.278;2023-09-07T02:24:19;95268.34;;;19.99;83.24
6435;BME280;3250;42.694;23.278;2023-09-07T02:26:45;95255.69;;;19.79;83.94
6435;BME280;3250;42.694;23.278;2023-09-07T02:29:13;95250.56;;;19.73;83.87
6435;BME280;3250;42.694;23.278;2023-09-07T02:31:42;95235.56;;;19.67;83.72
6435;BME280;3250;42.694;23.278;2023-09-07T02:34:07;95263.47;;;19.86;83.47
6435;BME280;3250;42.694;23.278;2023-09-07T02:36:34;95249.81;;;19.77;83.48
6435;BME280;3250;42.694;23.278;2023-09-07T02:39:02;95246.56;;;19.75;83.46
6435;BME280;3250;42.694;23.278;2023-09-07T02:41:28;95244.97;;;19.74;83.13
6435;BME280;3250;42.694;23.278;2023-09-07T02:43:54;95260.03;;;19.90;82.74
6435;BME280;3250;42.694;23.278;2023-09-07T02:46:19;95285.50;;;20.03;83.08
6435;BME280;3250;42.694;23.278;2023-09-07T02:48:45;95277.16;;;19.94;83.79
6435;BME280;3250;42.694;23.278;2023-09-07T02:51:10;95298.31;;;20.01;84.10
6435;BME280;3250;42.694;23.278;2023-09-07T02:53:35;95250.31;;;19.74;84.41
6435;BME280;3250;42.694;23.278;2023-09-07T02:56:01;95259.44;;;19.83;84.47
6435;BME280;3250;42.694;23.278;2023-09-07T02:58:29;95249.47;;;19.69;84.45
6435;BME280;3250;42.694;23.278;2023-09-07T03:00:54;95300.72;;;19.98;85.00
6435;BME280;3250;42.694;23.278;2023-09-07T03:03:20;95287.81;;;19.89;84.70
6435;BME280;3250;42.694;23.278;2023-09-07T03:05:45;95207.84;;;19.36;84.85
6435;BME280;3250;42.694;23.278;2023-09-07T03:08:11;95245.94;;;19.58;84.92
6435;BME280;3250;42.694;23.278;2023-09-07T03:10:36;95309.50;;;19.93;84.93
6435;BME280;3250;42.694;23.278;2023-09-07T03:13:05;95239.91;;;19.41;85.38
6435;BME280;3250;42.694;23.278;2023-09-07T03:15:30;95279.69;;;19.69;85.61
6435;BME280;3250;42.694;23.278;2023-09-07T03:17:56;95291.25;;;19.80;84.99
6435;BME280;3250;42.694;23.278;2023-09-07T03:20:21;95263.81;;;19.57;85.70
6435;BME280;3250;42.694;23.278;2023-09-07T03:22:47;95264.63;;;19.58;86.09
6435;BME280;3250;42.694;23.278;2023-09-07T03:25:13;95268.66;;;19.61;85.78
6435;BME280;3250;42.694;23.278;2023-09-07T03:27:39;95303.75;;;19.74;86.27
6435;BME280;3250;42.694;23.278;2023-09-07T03:30:05;95302.19;;;19.78;86.68
6435;BME280;3250;42.694;23.278;2023-09-07T03:32:34;95286.31;;;19.62;87.02
6435;BME280;3250;42.694;23.278;2023-09-07T03:35:00;95309.66;;;19.81;86.47
6435;BME280;3250;42.694;23.278;2023-09-07T03:37:26;95309.94;;;19.80;86.71
6435;BME280;3250;42.694;23.278;2023-09-07T03:39:53;95285.19;;;19.57;87.35
6435;BME280;3250;42.694;23.278;2023-09-07T03:42:18;95279.81;;;19.52;87.59
6435;BME280;3250;42.694;23.278;2023-09-07T03:44:44;95274.44;;;19.47;88.48
6435;BME280;3250;42.694;23.278;2023-09-07T03:47:10;95296.22;;;19.66;88.24
6435;BME280;3250;42.694;23.278;2023-09-07T03:49:36;95315.00;;;19.81;88.04
6435;BME280;3250;42.694;23.278;2023-09-07T03:52:01;95320.88;;;19.78;87.76
6435;BME280;3250;42.694;23.278;2023-09-07T03:54:26;95277.97;;;19.53;88.39
6435;BME280;3250;42.694;23.278;2023-09-07T03:56:52;95289.69;;;19.52;88.55
6435;BME280;3250;42.694;23.278;2023-09-07T03:59:18;95279.97;;;19.41;88.88
6435;BME280;3250;42.694;23.278;2023-09-07T04:01:44;95326.66;;;19.65;89.33
6435;BME280;3250;42.694;23.278;2023-09-07T04:04:09;95335.72;;;19.64;89.75
6435;BME280;3250;42.694;23.278;2023-09-07T04:06:34;95302.69;;;19.43;89.72
6435;BME280;3250;42.694;23.278;2023-09-07T04:09:00;95335.09;;;19.52;90.41
6435;BME280;3250;42.694;23.278;2023-09-07T04:11:25;95310.41;;;19.40;90.24
6435;BME280;3250;42.694;23.278;2023-09-07T04:13:51;95331.91;;;19.55;89.93
6435;BME280;3250;42.694;23.278;2023-09-07T04:16:16;95336.75;;;19.58;89.70
6435;BME280;3250;42.694;23.278;2023-09-07T04:18:42;95288.94;;;19.30;90.08
6435;BME280;3250;42.694;23.278;2023-09-07T04:21:09;95297.00;;;19.35;90.17
6435;BME280;3250;42.694;23.278;2023-09-07T04:23:35;95297.59;;;19.42;90.26
6435;BME280;3250;42.694;23.278;2023-09-07T04:26:09;95285.13;;;19.20;90.47
6435;BME280;3250;42.694;23.278;2023-09-07T04:28:36;95322.44;;;19.42;91.15
6435;BME280;3250;42.694;23.278;2023-09-07T04:31:02;95329.56;;;19.32;91.37
6435;BME280;3250;42.694;23.278;2023-09-07T04:33:32;95330.91;;;19.34;91.23
6435;BME280;3250;42.694;23.278;2023-09-07T04:36:12;95285.56;;;19.07;91.26
6435;BME280;3250;42.694;23.278;2023-09-07T04:38:39;95309.72;;;19.22;91.00
6435;BME280;3250;42.694;23.278;2023-09-07T04:41:11;95312.94;;;19.25;90.40
6435;BME280;3250;42.694;23.278;2023-09-07T04:43:38;95312.13;;;19.24;89.84
6435;BME280;3250;42.694;23.278;2023-09-07T04:46:09;95310.28;;;19.25;89.60
6435;BME280;3250;42.694;23.278;2023-09-07T04:51:03;95339.91;;;19.50;89.24
6435;BME280;3250;42.694;23.278;2023-09-07T04:53:31;95297.38;;;19.16;89.61
6435;BME280;3250;42.694;23.278;2023-09-07T04:55:58;95318.38;;;19.35;90.40
6435;BME280;3250;42.694;23.278;2023-09-07T04:58:23;95342.06;;;19.53;89.77
6435;BME280;3250;42.694;23.278;2023-09-07T05:00:49;95316.03;;;19.43;89.88
6435;BME280;3250;42.694;23.278;2023-09-07T05:03:15;95343.00;;;19.69;89.47
6435;BME280;3250;42.694;23.278;2023-09-07T05:05:41;95324.44;;;19.57;88.72
6435;BME280;3250;42.694;23.278;2023-09-07T05:08:06;95343.25;;;19.72;89.23
6435;BME280;3250;42.694;23.278;2023-09-07T05:10:36;95318.88;;;19.64;88.74
6435;BME280;3250;42.694;23.278;2023-09-07T05:13:02;95322.66;;;19.63;88.37
6435;BME280;3250;42.694;23.278;2023-09-07T05:15:28;95343.22;;;19.62;88.57
6435;BME280;3250;42.694;23.278;2023-09-07T05:17:54;95309.34;;;19.41;89.36
6435;BME280;3250;42.694;23.278;2023-09-07T05:20:20;95341.38;;;19.68;89.47
6435;BME280;3250;42.694;23.278;2023-09-07T05:22:45;95352.78;;;19.58;89.77
6435;BME280;3250;42.694;23.278;2023-09-07T05:25:12;95357.91;;;19.65;90.14
6435;BME280;3250;42.694;23.278;2023-09-07T05:27:38;95342.09;;;19.58;90.16
6435;BME280;3250;42.694;23.278;2023-09-07T05:30:04;95324.06;;;19.43;89.98
6435;BME280;3250;42.694;23.278;2023-09-07T05:32:30;95322.19;;;19.44;89.58
6435;BME280;3250;42.694;23.278;2023-09-07T05:34:55;95339.34;;;19.48;89.55
6435;BME280;3250;42.694;23.278;2023-09-07T05:37:20;95315.84;;;19.23;89.36
6435;BME280;3250;42.694;23.278;2023-09-07T05:39:46;95308.34;;;19.20;89.17
6435;BME280;3250;42.694;23.278;2023-09-07T05:42:11;95333.59;;;19.34;89.38
6435;BME280;3250;42.694;23.278;2023-09-07T05:44:37;95325.44;;;19.19;89.24
6435;BME280;3250;42.694;23.278;2023-09-07T05:47:03;95309.88;;;19.11;89.35
6435;BME280;3250;42.694;23.278;2023-09-07T05:49:28;95354.69;;;19.36;89.18
6435;BME280;3250;42.694;23.278;2023-09-07T05:51:54;95316.41;;;18.98;88.89
6435;BME280;3250;42.694;23.278;2023-09-07T05:54:19;95310.38;;;19.08;88.91
6435;BME280;3250;42.694;23.278;2023-09-07T05:56:45;95320.03;;;19.14;88.45
6435;BME280;3250;42.694;23.278;2023-09-07T05:59:10;95308.34;;;19.20;88.28
6435;BME280;3250;42.694;23.278;2023-09-07T06:01:36;95326.38;;;19.35;87.93
6435;BME280;3250;42.694;23.278;2023-09-07T06:04:01;95354.88;;;19.56;88.43
6435;BME280;3250;42.694;23.278;2023-09-07T06:06:29;95308.75;;;19.34;87.38
6435;BME280;3250;42.694;23.278;2023-09-07T06:08:54;95343.47;;;19.61;87.27
6435;BME280;3250;42.694;23.278;2023-09-07T06:11:19;95367.78;;;19.96;86.95
6435;BME280;3250;42.694;23.278;2023-09-07T06:13:46;95322.75;;;20.20;86.81
6435;BME280;3250;42.694;23.278;2023-09-07T06:16:12;95377.88;;;21.76;80.94
6435;BME280;3250;42.694;23.278;2023-09-07T06:18:37;95335.22;;;23.05;74.88
6435;BME280;3250;42.694;23.278;2023-09-07T06:21:04;95352.63;;;24.53;68.63
6435;BME280;3250;42.694;23.278;2023-09-07T06:23:31;95376.94;;;26.08;63.78
6435;BME280;3250;42.694;23.278;2023-09-07T06:25:56;95379.91;;;27.13;60.17
6435;BME280;3250;42.694;23.278;2023-09-07T06:28:22;95355.81;;;27.38;57.05
6435;BME280;3250;42.694;23.278;2023-09-07T06:30:47;95380.69;;;26.99;58.47
6435;BME280;3250;42.694;23.278;2023-09-07T06:33:12;95381.16;;;27.56;56.70
6435;BME280;3250;42.694;23.278;2023-09-07T06:35:38;95389.41;;;27.73;55.86
6435;BME280;3250;42.694;23.278;2023-09-07T06:38:04;95384.81;;;27.96;54.77
6435;BME280;3250;42.694;23.278;2023-09-07T06:40:29;95361.06;;;27.93;54.49
6435;BME280;3250;42.694;23.278;2023-09-07T06:42:55;95364.69;;;27.03;55.09
6435;BME280;3250;42.694;23.278;2023-09-07T06:45:22;95378.69;;;26.78;56.90
6435;BME280;3250;42.694;23.278;2023-09-07T06:47:49;95396.00;;;27.18;56.58
6435;BME280;3250;42.694;23.278;2023-09-07T06:50:15;95384.16;;;27.55;54.99
6435;BME280;3250;42.694;23.278;2023-09-07T06:52:41;95383.44;;;27.85;55.01
6435;BME280;3250;42.694;23.278;2023-09-07T06:55:06;95388.19;;;27.16;55.09
6435;BME280;3250;42.694;23.278;2023-09-07T06:57:32;95371.28;;;27.24;56.22
6435;BME280;3250;42.694;23.278;2023-09-07T07:00:00;95374.97;;;26.60;56.46
6435;BME280;3250;42.694;23.278;2023-09-07T07:02:25;95389.34;;;26.28;57.44
6435;BME280;3250;42.694;23.278;2023-09-07T07:04:51;95384.47;;;26.11;58.26
6435;BME280;3250;42.694;23.278;2023-09-07T07:07:17;95385.97;;;25.66;58.24
6435;BME280;3250;42.694;23.278;2023-09-07T07:09:42;95378.88;;;25.33;60.21
6435;BME280;3250;42.694;23.278;2023-09-07T07:12:08;95369.72;;;25.10;60.36
6435;BME280;3250;42.694;23.278;2023-09-07T07:14:33;95337.94;;;24.88;60.74
6435;BME280;3250;42.694;23.278;2023-09-07T07:16:59;95365.44;;;25.28;60.94
6435;BME280;3250;42.694;23.278;2023-09-07T07:19:24;95390.84;;;26.15;59.32
6435;BME280;3250;42.694;23.278;2023-09-07T07:21:50;95339.59;;;25.83;56.70
6435;BME280;3250;42.694;23.278;2023-09-07T07:24:15;95382.84;;;26.43;56.02
6435;BME280;3250;42.694;23.278;2023-09-07T07:26:41;95388.78;;;26.58;54.92
6435;BME280;3250;42.694;23.278;2023-09-07T07:29:06;95404.94;;;27.04;54.26
6435;BME280;3250;42.694;23.278;2023-09-07T07:31:31;95385.59;;;26.70;53.62
6435;BME280;3250;42.694;23.278;2023-09-07T07:33:57;95403.81;;;26.78;53.14
6435;BME280;3250;42.694;23.278;2023-09-07T07:36:23;95385.25;;;26.44;53.69
6435;BME280;3250;42.694;23.278;2023-09-07T07:38:49;95402.09;;;25.29;56.53
6435;BME280;3250;42.694;23.278;2023-09-07T07:41:15;95383.88;;;24.49;59.78
6435;BME280;3250;42.694;23.278;2023-09-07T07:43:40;95382.56;;;24.47;60.55
6435;BME280;3250;42.694;23.278;2023-09-07T07:46:05;95400.31;;;24.48;60.77
6435;BME280;3250;42.694;23.278;2023-09-07T07:48:33;95400.00;;;24.25;59.38
6435;BME280;3250;42.694;23.278;2023-09-07T07:51:03;95395.16;;;24.51;59.19
6435;BME280;3250;42.694;23.278;2023-09-07T07:53:29;95381.75;;;24.17;58.86
6435;BME280;3250;42.694;23.278;2023-09-07T07:55:56;95412.44;;;24.21;57.88
6435;BME280;3250;42.694;23.278;2023-09-07T07:58:22;95411.19;;;24.03;57.94
6435;BME280;3250;42.694;23.278;2023-09-07T08:00:48;95380.09;;;23.87;57.91
6435;BME280;3250;42.694;23.278;2023-09-07T08:03:14;95390.91;;;24.16;57.86
6435;BME280;3250;42.694;23.278;2023-09-07T08:05:40;95381.06;;;24.35;57.48
6435;BME280;3250;42.694;23.278;2023-09-07T08:08:05;95409.16;;;24.77;56.15
6435;BME280;3250;42.694;23.278;2023-09-07T08:10:35;95385.03;;;25.14;55.62
6435;BME280;3250;42.694;23.278;2023-09-07T08:13:02;95366.91;;;25.39;54.59
6435;BME280;3250;42.694;23.278;2023-09-07T08:15:28;95368.91;;;25.33;54.55
6435;BME280;3250;42.694;23.278;2023-09-07T08:17:54;95405.56;;;25.72;53.55
6435;BME280;3250;42.694;23.278;2023-09-07T08:20:20;95381.56;;;25.51;53.48
6435;BME280;3250;42.694;23.278;2023-09-07T08:22:46;95377.13;;;25.61;53.92
6435;BME280;3250;42.694;23.278;2023-09-07T08:25:13;95370.88;;;25.84;52.64
6435;BME280;3250;42.694;23.278;2023-09-07T08:27:40;95387.75;;;26.22;52.27
6435;BME280;3250;42.694;23.278;2023-09-07T08:30:13;95395.38;;;26.66;51.35
6435;BME280;3250;42.694;23.278;2023-09-07T08:32:42;95397.06;;;26.48;51.37
6435;BME280;3250;42.694;23.278;2023-09-07T08:35:10;95377.47;;;26.56;50.13
6435;BME280;3250;42.694;23.278;2023-09-07T08:37:41;95390.19;;;26.83;48.70
6435;BME280;3250;42.694;23.278;2023-09-07T08:40:07;95381.19;;;26.60;48.45
6435;BME280;3250;42.694;23.278;2023-09-07T08:42:35;95415.13;;;26.80;47.57
6435;BME280;3250;42.694;23.278;2023-09-07T08:45:02;95410.09;;;26.74;48.11
6435;BME280;3250;42.694;23.278;2023-09-07T08:47:33;95381.06;;;26.52;48.78
6435;BME280;3250;42.694;23.278;2023-09-07T08:49:59;95397.75;;;26.40;48.62
6435;BME280;3250;42.694;23.278;2023-09-07T08:52:25;95380.22;;;26.05;49.80
6435;BME280;3250;42.694;23.278;2023-09-07T08:54:52;95378.97;;;25.65;50.01
6435;BME280;3250;42.694;23.278;2023-09-07T08:57:18;95395.69;;;25.67;49.80
6435;BME280;3250;42.694;23.278;2023-09-07T08:59:49;95386.91;;;25.56;50.13
6435;BME280;3250;42.694;23.278;2023-09-07T09:02:14;95374.63;;;25.27;50.75
6435;BME280;3250;42.694;23.278;2023-09-07T09:04:41;95389.25;;;25.02;52.59
6435;BME280;3250;42.694;23.278;2023-09-07T09:07:07;95372.38;;;24.91;52.67
6435;BME280;3250;42.694;23.278;2023-09-07T09:09:32;95385.69;;;25.06;53.62
6435;BME280;3250;42.694;23.278;2023-09-07T09:12:08;95345.50;;;25.29;52.70
6435;BME280;3250;42.694;23.278;2023-09-07T09:14:34;95372.25;;;25.81;51.66
6435;BME280;3250;42.694;23.278;2023-09-07T09:17:00;95382.88;;;25.91;49.56
6435;BME280;3250;42.694;23.278;2023-09-07T09:19:33;95365.09;;;25.90;49.29
6435;BME280;3250;42.694;23.278;2023-09-07T09:21:58;95389.69;;;25.70;50.52
6435;BME280;3250;42.694;23.278;2023-09-07T09:24:24;95360.09;;;25.65;50.40
6435;BME280;3250;42.694;23.278;2023-09-07T09:26:50;95379.09;;;25.92;50.13
6435;BME280;3250;42.694;23.278;2023-09-07T09:29:16;95352.00;;;25.65;50.18
6435;BME280;3250;42.694;23.278;2023-09-07T09:31:41;95373.31;;;25.43;50.89
6435;BME280;3250;42.694;23.278;2023-09-07T09:34:08;95328.19;;;24.92;51.50
6435;BME280;3250;42.694;23.278;2023-09-07T09:36:36;95369.97;;;25.32;52.36
6435;BME280;3250;42.694;23.278;2023-09-07T09:39:02;95362.34;;;25.58;51.82
6435;BME280;3250;42.694;23.278;2023-09-07T09:41:32;95367.66;;;25.63;49.84
6435;BME280;3250;42.694;23.278;2023-09-07T09:43:59;95368.44;;;25.45;49.79
6435;BME280;3250;42.694;23.278;2023-09-07T09:46:26;95344.16;;;25.26;49.68
6435;BME280;3250;42.694;23.278;2023-09-07T09:48:54;95362.72;;;25.09;50.34
6435;BME280;3250;42.694;23.278;2023-09-07T09:51:20;95354.34;;;24.92;51.03
6435;BME280;3250;42.694;23.278;2023-09-07T09:53:46;95340.75;;;24.78;50.89
6435;BME280;3250;42.694;23.278;2023-09-07T09:56:12;95355.75;;;24.84;50.73
6435;BME280;3250;42.694;23.278;2023-09-07T09:58:38;95360.22;;;24.70;51.28
6435;BME280;3250;42.694;23.278;2023-09-07T10:01:04;95357.09;;;24.63;51.33
6435;BME280;3250;42.694;23.278;2023-09-07T10:03:47;95341.06;;;24.48;52.29
6435;BME280;3250;42.694;23.278;2023-09-07T10:06:25;95346.53;;;24.66;52.12
6435;BME280;3250;42.694;23.278;2023-09-07T10:11:33;95339.16;;;24.29;51.79
6435;BME280;3250;42.694;23.278;2023-09-07T10:14:03;95342.16;;;24.23;52.06
6435;BME280;3250;42.694;23.278;2023-09-07T10:16:40;95342.97;;;24.18;52.52
6435;BME280;3250;42.694;23.278;2023-09-07T10:19:17;95343.50;;;24.20;53.03
6435;BME280;3250;42.694;23.278;2023-09-07T10:21:42;95332.19;;;24.23;52.68
6435;BME280;3250;42.694;23.278;2023-09-07T10:24:08;95321.44;;;24.23;53.20
6435;BME280;3250;42.694;23.278;2023-09-07T10:26:34;95336.63;;;24.38;52.78
6435;BME280;3250;42.694;23.278;2023-09-07T10:29:01;95341.50;;;24.36;52.80
6435;BME280;3250;42.694;23.278;2023-09-07T10:31:29;95329.97;;;24.30;52.67
6435;BME280;3250;42.694;23.278;2023-09-07T10:34:10;95331.28;;;24.33;52.65
6435;BME280;3250;42.694;23.278;2023-09-07T10:36:39;95315.78;;;24.20;53.09
6435;BME280;3250;42.694;23.278;2023-09-07T10:39:05;95333.16;;;24.32;53.39
6435;BME280;3250;42.694;23.278;2023-09-07T10:41:45;95315.72;;;24.30;52.66
6435;BME280;3250;42.694;23.278;2023-09-07T10:44:10;95320.81;;;24.31;53.20
6435;BME280;3250;42.694;23.278;2023-09-07T10:46:38;95333.31;;;24.46;53.43
6435;BME280;3250;42.694;23.278;2023-09-07T10:49:07;95336.50;;;24.48;52.10
6435;BME280;3250;42.694;23.278;2023-09-07T10:51:33;95328.38;;;24.53;51.67
6435;BME280;3250;42.694;23.278;2023-09-07T10:53:58;95318.00;;;24.41;52.15
6435;BME280;3250;42.694;23.278;2023-09-07T10:56:24;95323.34;;;24.47;52.17
6435;BME280;3250;42.694;23.278;2023-09-07T10:58:54;95331.63;;;24.50;52.62
6435;BME280;3250;42.694;23.278;2023-09-07T11:01:20;95322.22;;;24.48;51.76
6435;BME280;3250;42.694;23.278;2023-09-07T11:03:45;95314.63;;;24.55;52.23
6435;BME280;3250;42.694;23.278;2023-09-07T11:06:16;95321.84;;;24.59;51.45
6435;BME280;3250;42.694;23.278;2023-09-07T11:08:45;95295.94;;;24.39;51.93
6435;BME280;3250;42.694;23.278;2023-09-07T11:11:11;95323.06;;;24.72;52.11
6435;BME280;3250;42.694;23.278;2023-09-07T11:13:37;95324.97;;;24.66;51.87
6435;BME280;3250;42.694;23.278;2023-09-07T11:16:03;95313.19;;;24.62;52.06
6435;BME280;3250;42.694;23.278;2023-09-07T11:18:29;95333.59;;;24.68;52.13
6435;BME280;3250;42.694;23.278;2023-09-07T11:20:56;95327.47;;;24.63;52.31
6435;BME280;3250;42.694;23.278;2023-09-07T11:23:21;95325.69;;;24.53;51.88
6435;BME280;3250;42.694;23.278;2023-09-07T11:25:49;95323.00;;;24.53;52.50
6435;BME280;3250;42.694;23.278;2023-09-07T11:28:17;95324.38;;;24.51;52.09
6435;BME280;3250;42.694;23.278;2023-09-07T11:30:53;95308.59;;;24.39;52.69
6435;BME280;3250;42.694;23.278;2023-09-07T11:33:21;95322.06;;;24.39;53.23
6435;BME280;3250;42.694;23.278;2023-09-07T11:35:46;95319.25;;;24.25;53.17
6435;BME280;3250;42.694;23.278;2023-09-07T11:38:14;95311.84;;;24.12;54.28
6435;BME280;3250;42.694;23.278;2023-09-07T11:40:40;95306.31;;;23.98;53.76
6435;BME280;3250;42.694;23.278;2023-09-07T11:43:09;95294.94;;;23.78;54.90
6435;BME280;3250;42.694;23.278;2023-09-07T11:45:34;95314.72;;;23.92;54.73
6435;BME280;3250;42.694;23.278;2023-09-07T11:48:00;95311.47;;;23.95;54.27
6435;BME280;3250;42.694;23.278;2023-09-07T11:50:25;95315.00;;;23.90;54.30
6435;BME280;3250;42.694;23.278;2023-09-07T11:52:51;95302.34;;;23.91;54.69
6435;BME280;3250;42.694;23.278;2023-09-07T11:55:17;95303.34;;;24.00;54.75
6435;BME280;3250;42.694;23.278;2023-09-07T11:57:42;95301.16;;;24.02;54.35
6435;BME280;3250;42.694;23.278;2023-09-07T12:00:08;95305.06;;;24.15;54.34
6435;BME280;3250;42.694;23.278;2023-09-07T12:02:38;95302.59;;;24.23;53.88
6435;BME280;3250;42.694;23.278;2023-09-07T12:05:04;95302.03;;;24.26;53.66
6435;BME280;3250;42.694;23.278;2023-09-07T12:07:30;95281.38;;;24.17;53.43
6435;BME280;3250;42.694;23.278;2023-09-07T12:09:56;95295.91;;;24.21;53.47
6435;BME280;3250;42.694;23.278;2023-09-07T12:12:23;95306.03;;;24.29;53.59
6435;BME280;3250;42.694;23.278;2023-09-07T12:14:48;95307.72;;;24.20;53.21
6435;BME280;3250;42.694;23.278;2023-09-07T12:17:13;95296.81;;;24.06;53.00
6435;BME280;3250;42.694;23.278;2023-09-07T12:19:39;95287.44;;;24.03;53.36
6435;BME280;3250;42.694;23.278;2023-09-07T12:22:07;95303.25;;;24.10;53.06
6435;BME280;3250;42.694;23.278;2023-09-07T12:24:33;95299.69;;;24.15;52.97
6435;BME280;3250;42.694;23.278;2023-09-07T12:26:58;95280.66;;;24.06;53.52
6435;BME280;3250;42.694;23.278;2023-09-07T12:29:25;95275.06;;;24.02;53.00
6435;BME280;3250;42.694;23.278;2023-09-07T12:31:51;95286.50;;;24.13;53.60
6435;BME280;3250;42.694;23.278;2023-09-07T12:34:16;95275.19;;;24.16;52.66
6435;BME280;3250;42.694;23.278;2023-09-07T12:36:41;95299.56;;;24.30;52.46
6435;BME280;3250;42.694;23.278;2023-09-07T12:39:07;95298.00;;;24.24;52.72
6435;BME280;3250;42.694;23.278;2023-09-07T12:41:32;95296.63;;;24.26;52.65
6435;BME280;3250;42.694;23.278;2023-09-07T12:43:58;95292.94;;;24.17;52.64
6435;BME280;3250;42.694;23.278;2023-09-07T12:46:23;95295.59;;;24.22;52.56
6435;BME280;3250;42.694;23.278;2023-09-07T12:48:49;95305.34;;;24.13;52.77
6435;BME280;3250;42.694;23.278;2023-09-07T12:51:14;95300.91;;;24.03;53.18
6435;BME280;3250;42.694;23.278;2023-09-07T12:53:41;95290.50;;;23.92;53.01
6435;BME280;3250;42.694;23.278;2023-09-07T12:56:06;95301.44;;;24.00;53.17
6435;BME280;3250;42.694;23.278;2023-09-07T12:58:32;95308.78;;;23.95;52.94
6435;BME280;3250;42.694;23.278;2023-09-07T13:00:58;95291.69;;;23.81;53.33
6435;BME280;3250;42.694;23.278;2023-09-07T13:03:23;95309.88;;;23.94;53.26
6435;BME280;3250;42.694;23.278;2023-09-07T13:05:48;95275.81;;;23.79;53.23
6435;BME280;3250;42.694;23.278;2023-09-07T13:08:14;95303.81;;;24.07;53.08
6435;BME280;3250;42.694;23.278;2023-09-07T13:10:40;95283.38;;;24.06;52.85